Time;durP1;ratioP1;P1;durP2;ratioP2;P2;SDS_P1;SDS_P2;PMS_P1;PMS_P2;Temp;Humidity;BMP_temperature;BMP_pressure;BME280_temperature;BME280_humidity;BME280_pressure;Samples;Min_cycle;Max_cycle;Signal;HPM_P1;HPM_P2
2024/04/01 00:03:39;;;;;;;35.40;15.45;;;12.20;99.90;;;;;;12426478;28;20057;-80
2024/04/01 00:09:40;;;;;;;39.25;15.02;;;12.00;99.90;;;;;;12429271;28;20049;-80
2024/04/01 00:15:41;;;;;;;33.72;15.60;;;12.10;99.90;;;;;;12421956;28;20050;-82
2024/04/01 00:21:42;;;;;;;33.17;15.23;;;12.10;99.90;;;;;;12434670;28;20574;-81
2024/04/01 00:27:43;;;;;;;33.67;15.05;;;12.00;99.90;;;;;;12419047;28;20058;-81
2024/04/01 00:33:44;;;;;;;35.65;18.58;;;11.90;99.90;;;;;;12418534;28;20042;-82
2024/04/01 00:39:45;;;;;;;33.97;19.80;;;11.90;99.90;;;;;;12417308;28;20454;-81
2024/04/01 00:45:48;;;;;;;36.00;19.35;;;11.70;99.90;;;;;;12444663;28;20389;-81
2024/04/01 00:51:50;;;;;;;32.50;18.42;;;11.30;99.90;;;;;;12411682;28;20161;-81
2024/04/01 00:57:53;;;;;;;37.70;18.23;;;11.10;99.90;;;;;;12434130;28;20541;-81
2024/04/01 01:03:54;;;;;;;37.15;19.17;;;11.00;99.90;;;;;;12436207;28;20073;-81
2024/04/01 01:09:55;;;;;;;32.88;18.13;;;10.80;99.90;;;;;;12411839;28;20051;-80
2024/04/01 01:15:56;;;;;;;34.05;18.38;;;10.90;99.90;;;;;;12435690;28;20537;-81
2024/04/01 01:22:03;;;;;;;31.42;16.75;;;10.80;99.90;;;;;;12444815;28;20639;-81
2024/04/01 01:28:07;;;;;;;33.25;17.27;;;10.80;99.90;;;;;;12451755;28;20061;-80
2024/04/01 01:34:08;;;;;;;41.90;18.98;;;10.80;99.90;;;;;;12424702;28;20057;-82
2024/04/01 01:40:09;;;;;;;38.03;18.17;;;10.70;99.90;;;;;;12461369;28;20042;-81
2024/04/01 01:46:10;;;;;;;33.25;18.25;;;10.60;99.90;;;;;;12439149;28;20069;-81
2024/04/01 01:52:11;;;;;;;32.30;16.55;;;10.60;99.90;;;;;;12462126;28;20052;-79
2024/04/01 01:58:12;;;;;;;26.58;13.55;;;10.60;99.90;;;;;;12492431;28;20037;-78
2024/04/01 02:04:13;;;;;;;26.67;11.73;;;10.60;99.90;;;;;;12479360;28;20050;-78
2024/04/01 02:10:14;;;;;;;25.05;11.52;;;10.90;99.90;;;;;;12455613;28;20062;-79
2024/04/01 02:16:14;;;;;;;19.98;9.63;;;11.00;99.90;;;;;;12474915;28;20132;-82
2024/04/01 02:22:17;;;;;;;25.77;11.15;;;11.00;99.90;;;;;;12487220;28;20053;-82
2024/04/01 02:28:18;;;;;;;23.70;10.73;;;10.90;99.90;;;;;;12467483;28;20057;-79
2024/04/01 02:34:19;;;;;;;22.67;12.05;;;10.80;99.90;;;;;;12468630;28;20049;-78
2024/04/01 02:40:19;;;;;;;23.50;11.40;;;10.60;99.90;;;;;;12490387;28;20049;-82
2024/04/01 02:46:20;;;;;;;21.90;9.60;;;10.50;99.90;;;;;;12490454;28;20105;-80
2024/04/01 02:52:21;;;;;;;20.83;10.57;;;10.30;99.90;;;;;;12487771;28;20053;-79
2024/04/01 02:58:22;;;;;;;18.05;8.90;;;10.30;99.90;;;;;;12491246;28;20088;-81
2024/04/01 03:04:23;;;;;;;19.17;9.25;;;10.30;99.90;;;;;;12455855;28;20075;-81
2024/04/01 03:10:24;;;;;;;22.08;9.75;;;10.20;99.90;;;;;;12443258;28;20084;-81
2024/04/01 03:16:25;;;;;;;19.98;9.57;;;10.30;99.90;;;;;;12493743;28;20037;-79
2024/04/01 03:22:27;;;;;;;23.27;9.18;;;10.30;99.90;;;;;;12435961;28;20578;-80
2024/04/01 03:28:28;;;;;;;14.70;8.05;;;10.20;99.90;;;;;;12424389;28;20525;-80
2024/04/01 03:34:30;;;;;;;15.73;7.32;;;10.10;99.90;;;;;;12437674;28;20052;-80
2024/04/01 03:40:30;;;;;;;22.17;7.88;;;10.00;99.90;;;;;;12415157;28;20056;-81
2024/04/01 03:46:31;;;;;;;13.05;6.60;;;10.00;99.90;;;;;;12441328;28;20487;-80
2024/04/01 03:52:35;;;;;;;12.15;5.82;;;10.10;99.90;;;;;;12440822;28;20049;-81
2024/04/01 03:58:36;;;;;;;13.90;5.72;;;10.20;99.90;;;;;;12439100;28;20057;-81
2024/04/01 04:04:37;;;;;;;9.00;4.95;;;10.20;99.90;;;;;;12417911;28;20060;-80
2024/04/01 04:10:39;;;;;;;14.80;6.63;;;10.10;99.90;;;;;;12392785;28;20140;-82
2024/04/01 04:16:41;;;;;;;27.95;11.73;;;10.20;99.90;;;;;;12411041;28;20568;-82
2024/04/01 04:22:44;;;;;;;26.58;13.23;;;9.90;99.90;;;;;;12420974;28;20103;-81
2024/04/01 04:28:45;;;;;;;20.38;11.13;;;9.90;99.90;;;;;;12416832;28;20053;-81
2024/04/01 04:34:46;;;;;;;23.52;10.60;;;10.00;99.90;;;;;;12433870;28;20081;-81
2024/04/01 04:40:47;;;;;;;19.88;11.25;;;10.10;99.90;;;;;;12430898;28;20115;-80
2024/04/01 04:46:48;;;;;;;37.42;15.57;;;10.20;99.90;;;;;;12434069;28;20054;-80
2024/04/01 04:52:49;;;;;;;18.17;10.57;;;10.10;99.90;;;;;;12437749;28;20608;-81
2024/04/01 04:58:53;;;;;;;28.55;12.25;;;9.90;99.90;;;;;;12449052;28;20490;-81
2024/04/01 05:04:54;;;;;;;21.08;10.75;;;9.80;99.90;;;;;;12445452;28;20092;-80
2024/04/01 05:10:56;;;;;;;25.15;11.93;;;9.90;99.90;;;;;;12412875;28;20108;-80
2024/04/01 05:16:57;;;;;;;26.08;13.02;;;10.00;99.90;;;;;;12466567;28;20557;-81
2024/04/01 05:22:57;;;;;;;25.00;13.07;;;10.10;99.90;;;;;;12462440;28;20049;-81
2024/04/01 05:28:59;;;;;;;22.10;10.13;;;10.30;99.90;;;;;;12442501;28;20057;-80
2024/04/01 05:35:01;;;;;;;19.63;9.68;;;10.40;99.90;;;;;;12452284;28;20452;-81
2024/04/01 05:41:02;;;;;;;20.55;11.73;;;10.30;99.90;;;;;;12427446;28;20057;-83
2024/04/01 05:47:03;;;;;;;21.58;10.43;;;10.30;99.90;;;;;;12429461;28;20565;-82
2024/04/01 05:53:04;;;;;;;17.20;9.55;;;10.30;99.90;;;;;;12430250;28;20506;-83
2024/04/01 05:59:05;;;;;;;24.58;11.35;;;10.30;99.90;;;;;;12430221;28;20062;-83
2024/04/01 06:05:06;;;;;;;20.15;10.80;;;10.10;99.90;;;;;;12446129;28;20085;-83
2024/04/01 06:11:07;;;;;;;26.05;10.95;;;10.10;99.90;;;;;;12415028;28;20181;-84
2024/04/01 06:17:08;;;;;;;22.92;11.07;;;10.10;99.90;;;;;;12424272;28;20129;-82
2024/04/01 06:23:09;;;;;;;21.63;11.45;;;10.20;99.90;;;;;;12455196;28;20061;-80
2024/04/01 06:29:10;;;;;;;16.80;9.80;;;10.30;99.90;;;;;;12453784;28;20057;-82
2024/04/01 06:35:11;;;;;;;21.55;10.85;;;10.10;99.90;;;;;;12437795;28;20557;-82
2024/04/01 06:41:12;;;;;;;21.00;10.25;;;10.00;99.90;;;;;;12441674;28;20056;-78
2024/04/01 06:47:13;;;;;;;20.90;10.73;;;10.00;99.90;;;;;;12461956;28;20068;-78
2024/04/01 06:53:17;;;;;;;18.65;10.57;;;10.10;99.90;;;;;;12444365;28;20046;-80
2024/04/01 06:59:18;;;;;;;16.80;9.87;;;10.10;99.90;;;;;;12426334;28;20050;-80
2024/04/01 07:05:18;;;;;;;18.27;10.77;;;10.10;99.90;;;;;;12439191;28;20050;-81
2024/04/01 07:11:19;;;;;;;17.75;12.13;;;10.10;99.90;;;;;;12409812;28;20061;-81
2024/04/01 07:17:20;;;;;;;23.88;11.80;;;10.10;99.90;;;;;;12439211;28;20420;-82
2024/04/01 07:23:21;;;;;;;26.85;13.95;;;10.10;99.90;;;;;;12422192;28;20430;-83
2024/04/01 07:29:22;;;;;;;34.00;17.17;;;10.20;99.90;;;;;;12422192;28;20148;-82
2024/04/01 07:35:23;;;;;;;24.13;15.15;;;10.30;99.90;;;;;;12432932;28;20525;-82
2024/04/01 07:41:25;;;;;;;22.90;13.75;;;10.40;99.90;;;;;;12436934;28;20060;-83
2024/04/01 07:47:26;;;;;;;20.67;14.40;;;10.40;99.90;;;;;;12436311;28;20132;-82
2024/04/01 07:53:27;;;;;;;16.25;11.73;;;10.40;99.90;;;;;;12423712;28;20116;-82
2024/04/01 07:59:33;;;;;;;14.77;10.43;;;10.30;99.90;;;;;;12439551;28;20052;-82
2024/04/01 08:05:33;;;;;;;20.80;10.77;;;10.30;99.90;;;;;;12461075;28;20065;-80
2024/04/01 08:11:34;;;;;;;16.30;10.27;;;10.30;99.90;;;;;;12433443;28;20474;-79
2024/04/01 08:17:35;;;;;;;17.27;11.05;;;10.40;99.90;;;;;;12465254;28;20070;-79
2024/04/01 08:23:36;;;;;;;14.80;9.75;;;10.50;99.90;;;;;;12456167;28;20069;-79
2024/04/01 08:29:39;;;;;;;15.30;10.70;;;10.50;99.90;;;;;;12470486;28;20050;-80
2024/04/01 08:35:40;;;;;;;15.43;10.55;;;10.50;99.90;;;;;;12458475;28;20042;-81
2024/04/01 08:41:49;;;;;;;15.02;11.70;;;10.60;99.90;;;;;;12471925;28;20054;-80
2024/04/01 08:47:55;;;;;;;15.18;11.98;;;10.80;99.90;;;;;;12444325;28;20553;-79
2024/04/01 08:54:01;;;;;;;16.20;11.50;;;10.90;99.90;;;;;;12467973;28;20030;-80
2024/04/01 09:00:02;;;;;;;18.73;11.50;;;10.90;99.90;;;;;;12483016;28;20045;-81
2024/04/01 09:06:04;;;;;;;14.90;10.65;;;10.90;99.90;;;;;;12457373;28;20108;-83
2024/04/01 09:12:07;;;;;;;17.98;12.98;;;11.00;99.90;;;;;;12410067;28;20048;-83
2024/04/01 09:18:15;;;;;;;21.98;15.00;;;11.20;99.90;;;;;;12455200;28;20494;-83
2024/04/01 09:24:16;;;;;;;18.73;12.90;;;11.40;99.90;;;;;;12427716;28;20052;-82
2024/04/01 09:30:17;;;;;;;16.45;11.50;;;11.50;99.90;;;;;;12450586;28;20128;-83
2024/04/01 09:36:18;;;;;;;13.10;10.65;;;11.10;99.90;;;;;;12457473;28;20078;-83
2024/04/01 09:42:19;;;;;;;14.82;9.40;;;10.90;99.90;;;;;;12472684;28;20129;-83
2024/04/01 09:48:25;;;;;;;12.00;9.82;;;10.90;99.90;;;;;;12460394;28;20129;-83
2024/04/01 09:54:27;;;;;;;13.70;9.85;;;10.90;99.90;;;;;;12495827;28;20080;-83
2024/04/01 10:00:49;;;;;;;17.20;11.40;;;10.90;99.90;;;;;;12485477;28;20057;-84
2024/04/01 10:07:35;;;;;;;13.50;9.85;;;10.70;99.90;;;;;;12475993;28;20046;-84
2024/04/01 10:14:05;;;;;;;11.50;9.32;;;10.60;99.90;;;;;;12453134;28;20057;-85
2024/04/01 10:20:25;;;;;;;14.20;10.15;;;10.60;99.90;;;;;;12429481;28;20613;-84
2024/04/01 10:26:56;;;;;;;15.63;10.20;;;10.70;99.90;;;;;;12423122;28;20069;-85
2024/04/01 10:33:32;;;;;;;14.90;12.20;;;10.80;99.90;;;;;;12429424;28;20061;-86
2024/04/01 10:40:06;;;;;;;17.58;10.55;;;11.00;99.90;;;;;;12424561;28;20054;-85
2024/04/01 10:46:25;;;;;;;12.63;10.38;;;11.00;99.90;;;;;;12419221;28;20050;-85
2024/04/01 10:52:45;;;;;;;15.15;11.43;;;11.20;99.90;;;;;;12359908;28;20085;-85
2024/04/01 10:59:37;;;;;;;13.35;11.95;;;11.20;99.90;;;;;;12357778;28;20050;-87
2024/04/01 11:05:59;;;;;;;13.95;12.35;;;11.10;99.90;;;;;;12351297;28;20058;-87
2024/04/01 11:12:15;;;;;;;14.70;13.07;;;11.00;99.90;;;;;;12346811;28;20391;-86
2024/04/01 11:18:37;;;;;;;15.10;13.00;;;10.90;99.90;;;;;;12375139;28;20046;-85
2024/04/01 11:25:10;;;;;;;18.40;13.65;;;11.00;99.90;;;;;;12367133;28;20050;-86
2024/04/01 11:31:22;;;;;;;17.67;14.18;;;11.10;99.90;;;;;;12345934;28;20051;-84
2024/04/01 11:37:49;;;;;;;13.85;12.13;;;11.00;99.90;;;;;;12340154;28;20051;-87
2024/04/01 11:43:51;;;;;;;12.20;10.98;;;11.00;99.90;;;;;;12362055;28;20050;-86
2024/04/01 11:49:52;;;;;;;10.07;9.07;;;11.20;99.90;;;;;;12423167;28;20604;-83
2024/04/01 11:56:00;;;;;;;9.93;9.10;;;11.10;99.90;;;;;;12459837;28;20060;-83
2024/04/01 12:02:11;;;;;;;10.35;9.43;;;11.10;99.90;;;;;;12440499;28;20062;-85
2024/04/01 12:08:15;;;;;;;11.00;9.93;;;11.20;99.90;;;;;;12428796;28;20053;-83
2024/04/01 12:14:19;;;;;;;10.80;9.90;;;11.40;99.90;;;;;;12407743;28;20046;-85
2024/04/01 12:20:22;;;;;;;12.65;11.55;;;11.50;99.90;;;;;;12434205;28;20068;-86
2024/04/01 12:26:23;;;;;;;12.85;11.85;;;11.60;99.90;;;;;;12443261;28;20053;-84
2024/04/01 12:32:26;;;;;;;11.75;10.75;;;11.70;99.90;;;;;;12410763;28;20863;-86
2024/04/01 12:38:33;;;;;;;10.73;9.82;;;11.40;99.90;;;;;;12440068;28;20057;-83
2024/04/01 12:44:34;;;;;;;5.32;4.82;;;11.20;99.90;;;;;;12429118;28;20060;-83
2024/04/01 12:50:36;;;;;;;4.63;4.22;;;11.10;99.90;;;;;;12439438;28;20533;-82
2024/04/01 12:56:40;;;;;;;4.90;4.50;;;11.10;99.90;;;;;;12400071;28;20376;-82
2024/04/01 13:03:03;;;;;;;5.07;4.57;;;11.00;99.90;;;;;;12435224;28;20064;-85
2024/04/01 13:09:10;;;;;;;6.82;6.22;;;10.90;99.90;;;;;;12429197;28;20046;-83
2024/04/01 13:15:26;;;;;;;4.05;2.88;;;10.80;99.90;;;;;;12442733;28;20060;-88
2024/04/01 13:21:38;;;;;;;3.30;3.00;;;10.70;99.90;;;;;;12445202;28;20077;-84
2024/04/01 13:28:17;;;;;;;2.95;2.65;;;10.70;99.90;;;;;;12443625;28;20058;-87
2024/04/01 13:34:29;;;;;;;3.83;3.47;;;10.60;99.90;;;;;;12429781;28;20112;-86
2024/04/01 13:40:48;;;;;;;3.28;2.67;;;10.60;99.90;;;;;;12421980;28;20056;-86
2024/04/01 13:47:33;;;;;;;4.22;3.38;;;10.60;99.90;;;;;;12438889;28;20058;-81
2024/04/01 13:53:44;;;;;;;4.78;3.80;;;10.60;99.90;;;;;;12424036;28;20050;-82
2024/04/01 13:59:52;;;;;;;3.78;3.10;;;10.60;99.90;;;;;;12442726;28;20046;-82
2024/04/01 14:06:30;;;;;;;4.65;4.03;;;10.60;99.90;;;;;;12440298;28;20439;-83
2024/04/01 14:13:00;;;;;;;6.72;3.50;;;10.60;99.90;;;;;;12412833;28;20061;-82
2024/04/01 14:19:29;;;;;;;4.10;3.25;;;10.50;99.90;;;;;;12397381;28;20054;-84
2024/04/01 14:25:40;;;;;;;5.47;4.13;;;10.40;99.90;;;;;;12453580;28;20398;-85
2024/04/01 14:31:41;;;;;;;5.60;3.95;;;10.50;99.90;;;;;;12428924;28;20053;-83
2024/04/01 14:37:42;;;;;;;4.80;4.40;;;10.30;99.90;;;;;;12440450;28;20053;-84
2024/04/01 14:43:44;;;;;;;5.22;4.72;;;10.30;99.90;;;;;;12431522;28;20445;-85
2024/04/01 14:49:45;;;;;;;6.53;5.05;;;10.20;99.90;;;;;;12410110;28;20062;-85
2024/04/01 14:55:47;;;;;;;6.18;5.50;;;10.10;99.90;;;;;;12370443;28;20408;-81
2024/04/01 15:01:50;;;;;;;6.32;5.60;;;10.00;99.90;;;;;;12342476;28;20477;-83
2024/04/01 15:07:52;;;;;;;7.05;6.35;;;9.90;99.90;;;;;;12391438;28;20498;-83
2024/04/01 15:13:53;;;;;;;7.63;6.82;;;9.80;99.90;;;;;;12347635;28;20510;-83
2024/04/01 15:19:54;;;;;;;7.45;6.70;;;9.90;99.90;;;;;;12366679;28;20065;-87
2024/04/01 15:25:54;;;;;;;10.05;8.07;;;9.80;99.90;;;;;;12372113;28;20054;-82
2024/04/01 15:31:57;;;;;;;9.50;8.60;;;9.90;99.90;;;;;;12380798;28;20124;-86
2024/04/01 15:37:58;;;;;;;10.25;9.25;;;9.90;99.90;;;;;;12379310;28;20498;-85
2024/04/01 15:44:00;;;;;;;12.13;10.90;;;9.90;99.90;;;;;;12352764;28;20046;-81
2024/04/01 15:50:02;;;;;;;10.73;9.52;;;9.90;99.90;;;;;;12383300;28;20051;-83
2024/04/01 15:56:04;;;;;;;10.70;9.60;;;9.90;99.90;;;;;;12440376;28;20049;-81
2024/04/01 16:02:06;;;;;;;12.20;10.88;;;9.90;99.90;;;;;;12439299;28;20069;-81
2024/04/01 16:08:08;;;;;;;11.05;9.95;;;9.90;99.90;;;;;;12441462;28;20050;-86
2024/04/01 16:14:17;;;;;;;11.23;10.05;;;9.90;99.90;;;;;;12422579;28;20049;-85
2024/04/01 16:20:18;;;;;;;12.23;11.10;;;9.80;99.90;;;;;;12452415;28;20057;-82
2024/04/01 16:26:19;;;;;;;12.50;11.30;;;9.90;99.90;;;;;;12443320;28;20054;-83
2024/04/01 16:32:21;;;;;;;11.20;10.10;;;9.80;99.90;;;;;;12453310;28;20701;-81
2024/04/01 16:38:22;;;;;;;13.40;10.57;;;9.90;99.90;;;;;;12448428;28;20057;-87
2024/04/01 16:44:24;;;;;;;16.73;11.95;;;9.80;99.90;;;;;;12442105;28;20108;-80
2024/04/01 16:50:25;;;;;;;14.88;13.35;;;9.70;99.90;;;;;;12433715;28;20459;-80
2024/04/01 16:56:26;;;;;;;16.90;12.63;;;9.60;99.90;;;;;;12458092;28;20054;-84
2024/04/01 17:02:27;;;;;;;18.40;14.07;;;9.70;99.90;;;;;;12450361;28;20061;-81
2024/04/01 17:08:29;;;;;;;16.95;13.95;;;9.60;99.90;;;;;;12450594;28;20058;-80
2024/04/01 17:14:34;;;;;;;20.15;14.20;;;9.50;99.90;;;;;;12439348;28;20072;-85
2024/04/01 17:20:36;;;;;;;18.23;14.50;;;9.40;99.90;;;;;;12473166;28;20058;-83
2024/04/01 17:26:37;;;;;;;17.20;13.68;;;9.30;99.90;;;;;;12445240;28;20053;-85
2024/04/01 17:32:40;;;;;;;26.50;15.68;;;9.20;99.90;;;;;;12448690;28;20041;-86
2024/04/01 17:38:41;;;;;;;14.48;11.90;;;9.10;99.90;;;;;;12418954;28;20490;-86
2024/04/01 17:44:42;;;;;;;15.00;12.20;;;9.10;99.90;;;;;;12441560;28;20061;-86
2024/04/01 17:50:43;;;;;;;16.83;11.68;;;9.20;99.90;;;;;;12427929;28;20076;-87
2024/04/01 17:56:44;;;;;;;15.70;11.88;;;9.10;99.90;;;;;;12438788;28;20096;-86
2024/04/01 18:02:46;;;;;;;16.67;11.95;;;9.10;99.90;;;;;;12452263;28;20199;-84
2024/04/01 18:08:47;;;;;;;14.18;11.18;;;9.10;99.90;;;;;;12444263;28;20054;-87
2024/04/01 18:14:49;;;;;;;15.30;10.73;;;9.10;99.90;;;;;;12457501;28;20053;-88
2024/04/01 18:20:51;;;;;;;14.45;11.30;;;9.10;99.90;;;;;;12441136;28;20046;-85
2024/04/01 18:26:53;;;;;;;13.30;10.65;;;9.00;99.90;;;;;;12441826;28;20436;-88
2024/04/01 18:32:55;;;;;;;13.90;9.95;;;9.00;99.90;;;;;;12476346;28;20073;-85
2024/04/01 18:38:57;;;;;;;11.98;10.13;;;9.00;99.90;;;;;;12460977;28;20046;-85
2024/04/01 18:44:58;;;;;;;13.55;9.73;;;9.00;99.90;;;;;;12494278;28;20060;-84
2024/04/01 18:51:03;;;;;;;13.05;8.95;;;9.00;99.90;;;;;;12501138;28;20057;-85
2024/04/01 18:57:06;;;;;;;15.15;8.55;;;9.00;99.90;;;;;;12472608;28;20069;-85
2024/04/01 19:03:07;;;;;;;12.32;8.25;;;9.10;99.90;;;;;;12477260;28;20063;-83
2024/04/01 19:09:08;;;;;;;9.80;7.82;;;9.00;99.90;;;;;;12474969;28;20060;-83
2024/04/01 19:15:09;;;;;;;13.07;8.18;;;8.90;99.90;;;;;;12460013;28;20045;-84
2024/04/01 19:21:10;;;;;;;11.88;8.32;;;8.90;99.90;;;;;;12428992;28;20050;-87
2024/04/01 19:27:12;;;;;;;10.38;7.25;;;8.90;99.90;;;;;;12447500;28;20050;-85
2024/04/01 19:33:12;;;;;;;10.35;7.25;;;8.90;99.90;;;;;;12469430;28;20050;-85
2024/04/01 19:39:13;;;;;;;15.77;8.50;;;8.90;99.90;;;;;;12472927;28;20038;-85
2024/04/01 19:45:14;;;;;;;14.57;8.23;;;8.90;99.90;;;;;;12502025;28;20117;-85
2024/04/01 19:51:15;;;;;;;11.50;7.10;;;8.90;99.90;;;;;;12429953;28;20054;-80
2024/04/01 19:57:17;;;;;;;8.75;6.88;;;8.90;99.90;;;;;;12430614;28;20613;-80
2024/04/01 20:03:18;;;;;;;11.13;7.03;;;8.90;99.90;;;;;;12444068;28;20061;-80
2024/04/01 20:09:29;;;;;;;10.80;6.80;;;8.90;99.90;;;;;;12443920;28;20061;-83
2024/04/01 20:15:30;;;;;;;10.07;6.47;;;8.90;99.90;;;;;;12448331;28;20058;-81
2024/04/01 20:21:31;;;;;;;7.82;6.20;;;8.80;99.90;;;;;;12442415;28;20152;-80
2024/04/01 20:27:32;;;;;;;8.23;5.55;;;8.80;99.90;;;;;;12444221;28;20057;-80
2024/04/01 20:33:34;;;;;;;10.13;5.72;;;8.80;99.90;;;;;;12446521;28;20052;-79
2024/04/01 20:39:35;;;;;;;6.75;5.10;;;8.90;99.90;;;;;;12453224;28;20111;-81
2024/04/01 20:45:35;;;;;;;10.80;5.13;;;8.80;99.90;;;;;;12458566;28;20131;-81
2024/04/01 20:51:37;;;;;;;7.10;5.22;;;8.80;99.90;;;;;;12449131;28;20057;-80
2024/04/01 20:57:41;;;;;;;7.78;5.05;;;8.80;99.90;;;;;;12430291;28;20045;-83
2024/04/01 21:03:43;;;;;;;7.88;5.05;;;8.80;99.90;;;;;;12448821;28;20049;-82
2024/04/01 21:09:44;;;;;;;6.32;4.43;;;8.70;99.90;;;;;;12456875;28;20053;-84
2024/04/01 21:15:44;;;;;;;8.95;4.70;;;8.70;99.90;;;;;;12475465;28;20053;-81
2024/04/01 21:21:45;;;;;;;7.60;3.95;;;8.70;99.90;;;;;;12484247;28;20140;-80
2024/04/01 21:27:47;;;;;;;4.63;3.78;;;8.70;99.90;;;;;;12467545;28;20060;-80
2024/04/01 21:33:49;;;;;;;5.22;3.88;;;8.80;99.90;;;;;;12460787;28;20046;-83
2024/04/01 21:39:50;;;;;;;5.13;3.90;;;8.90;99.90;;;;;;12443296;28;20085;-82
2024/04/01 21:45:51;;;;;;;4.50;3.42;;;8.90;99.90;;;;;;12459930;28;20062;-80
2024/04/01 21:51:53;;;;;;;7.72;3.60;;;9.00;99.90;;;;;;12424458;28;20053;-83
2024/04/01 21:57:54;;;;;;;7.80;3.67;;;9.00;99.90;;;;;;12449677;28;20056;-82
2024/04/01 22:03:54;;;;;;;6.57;3.10;;;9.00;99.90;;;;;;12447203;28;20049;-82
2024/04/01 22:09:55;;;;;;;5.25;3.35;;;9.00;99.90;;;;;;12436165;28;20557;-78
2024/04/01 22:15:56;;;;;;;5.05;3.60;;;8.90;99.90;;;;;;12443974;28;20064;-80
2024/04/01 22:21:57;;;;;;;5.05;3.65;;;9.10;99.90;;;;;;12435970;28;20494;-81
2024/04/01 22:27:58;;;;;;;5.28;3.60;;;9.00;99.90;;;;;;12438445;28;20062;-79
2024/04/01 22:33:59;;;;;;;5.85;4.60;;;9.00;99.90;;;;;;12442203;28;20049;-81
2024/04/01 22:40:00;;;;;;;8.43;4.43;;;8.90;99.90;;;;;;12403380;28;20042;-81
2024/04/01 22:46:02;;;;;;;6.57;3.90;;;8.80;99.90;;;;;;12413918;28;20064;-80
2024/04/01 22:52:04;;;;;;;7.47;4.28;;;8.80;99.90;;;;;;12450882;28;20110;-81
2024/04/01 22:58:05;;;;;;;5.10;3.92;;;8.80;99.90;;;;;;12456103;28;20490;-82
2024/04/01 23:04:06;;;;;;;9.70;4.20;;;8.90;99.90;;;;;;12462964;28;20062;-81
2024/04/01 23:10:07;;;;;;;5.70;4.20;;;8.80;99.90;;;;;;12476878;28;20057;-84
2024/04/01 23:16:13;;;;;;;4.80;4.10;;;8.90;99.90;;;;;;12459741;28;20047;-84
2024/04/01 23:22:14;;;;;;;4.40;3.95;;;8.90;99.90;;;;;;12450256;28;20056;-81
2024/04/01 23:28:15;;;;;;;5.30;3.80;;;8.90;99.90;;;;;;12446020;28;20088;-82
2024/04/01 23:34:16;;;;;;;4.38;3.90;;;8.80;99.90;;;;;;12454609;28;20072;-81
2024/04/01 23:40:18;;;;;;;6.45;4.32;;;8.80;99.90;;;;;;12437552;28;20085;-80
2024/04/01 23:46:19;;;;;;;6.22;4.32;;;8.80;99.90;;;;;;12457439;28;20062;-82
2024/04/01 23:52:20;;;;;;;6.53;4.13;;;8.80;99.90;;;;;;12444021;28;20042;-79
2024/04/01 23:58:21;;;;;;;5.03;4.32;;;8.90;99.90;;;;;;12468978;28;20469;-80
